KDMN

Deming Municipal Airport

Deming, New Mexico, USA
METAR KDMN 140653Z AUTO 27005KT 10SM CLR M04/M12 A3033 RMK AO2 SLP264 T10441122 401221044
Observed Flight Rules
Dec-14 @ 06:53 UTC (2 hours ago) Visual Flight Rules
Wind Visibility Clouds
270° at 5 knots 10 miles
  • Clear skies
Temperatures Readings
Current -4°C / 25°F
Dewpoint -12°C / 10°F
Humidity 54%
Altimeter 30.33" Hg
Pressure 1026.4 hPa
Elevation 1311
METAR KDMN 140653Z AUTO 27005KT 10SM CLR M04/M12 A3033 RMK AO2 SLP264 T10441122 401221044
Observed Flight Rules
Dec-14 @ 06:53 UTC
(2 hours ago)
VFR
Wind Visibility
270° at 5 knots 10 miles
Clouds
  • Clear skies
Temperature Dewpoint
-4°C / 25°F -12°C / 10°F
Humidity Altimeter Pressure
54% 30.33" Hg 1026.4 hPa